createdAt,value
2022-11-15T00:01:20.582Z,29.30
2022-11-15T00:06:42.376Z,29.40
2022-11-15T00:12:05.756Z,28.87
2022-11-15T00:17:27.736Z,29.02
2022-11-15T00:22:49.559Z,28.80
2022-11-15T00:28:12.639Z,30.80
2022-11-15T00:33:34.956Z,29.25
2022-11-15T00:38:57.198Z,30.75
2022-11-15T00:44:20.334Z,31.45
2022-11-15T00:49:42.860Z,29.45
2022-11-15T00:55:05.290Z,29.33
2022-11-15T01:00:28.566Z,30.37
2022-11-15T01:05:50.543Z,28.90
2022-11-15T01:11:14.046Z,29.30
2022-11-15T01:16:37.449Z,28.98
2022-11-15T01:21:59.138Z,27.67
2022-11-15T01:27:20.946Z,28.70
2022-11-15T01:32:44.163Z,26.42
2022-11-15T01:38:05.926Z,27.08
2022-11-15T01:43:29.794Z,26.08
2022-11-15T01:48:55.279Z,25.35
2022-11-15T01:54:21.469Z,27.00
2022-11-15T01:59:46.757Z,26.10
2022-11-15T02:05:10.788Z,25.25
2022-11-15T02:10:32.931Z,25.20
2022-11-15T02:16:12.355Z,25.42
2022-11-15T02:21:42.379Z,23.60
2022-11-15T02:27:29.548Z,25.65
2022-11-15T02:32:56.801Z,25.05
2022-11-15T02:38:24.742Z,24.05
2022-11-15T02:43:59.907Z,25.48
2022-11-15T02:49:25.238Z,23.58
2022-11-15T02:54:56.275Z,23.35
2022-11-15T03:00:20.401Z,24.15
2022-11-15T03:05:54.325Z,23.52
2022-11-15T03:11:19.392Z,22.80
2022-11-15T03:16:47.346Z,24.30
2022-11-15T03:22:13.714Z,23.98
2022-11-15T03:27:40.431Z,23.67
2022-11-15T03:33:06.027Z,23.87
2022-11-15T03:38:33.027Z,24.90
2022-11-15T03:44:01.624Z,24.90
2022-11-15T03:49:29.517Z,25.52
2022-11-15T03:54:58.392Z,25.50
2022-11-15T04:00:20.527Z,25.58
2022-11-15T04:05:42.460Z,26.17
2022-11-15T04:11:05.555Z,26.40
2022-11-15T04:16:27.271Z,25.58
2022-11-15T04:22:06.350Z,25.23
2022-11-15T04:27:29.703Z,25.88
2022-11-15T04:32:51.586Z,25.35
2022-11-15T04:38:13.756Z,27.30
2022-11-15T04:43:37.230Z,26.05
2022-11-15T04:48:59.572Z,26.00
2022-11-15T04:54:21.176Z,25.35
2022-11-15T04:59:44.327Z,26.30
2022-11-15T05:05:06.845Z,26.08
2022-11-15T05:10:28.755Z,26.83
2022-11-15T05:15:51.844Z,26.02
2022-11-15T05:21:16.234Z,26.75
2022-11-15T05:26:38.234Z,25.73
2022-11-15T05:32:01.802Z,26.10
2022-11-15T05:37:23.413Z,23.33
2022-11-15T05:42:46.185Z,23.73
2022-11-15T05:48:11.763Z,24.17
2022-11-15T05:53:34.415Z,22.75
2022-11-15T05:58:59.708Z,21.58
2022-11-15T06:04:23.044Z,23.60
2022-11-15T06:09:45.050Z,22.08
2022-11-15T06:15:07.497Z,19.60
2022-11-15T06:20:31.990Z,18.83
2022-11-15T06:25:54.270Z,19.80
2022-11-15T06:31:16.025Z,17.70
2022-11-15T06:36:39.482Z,18.23
2022-11-15T06:42:01.581Z,18.20
2022-11-15T06:47:23.167Z,16.23
2022-11-15T06:52:48.863Z,15.65
2022-11-15T06:58:10.506Z,15.93
2022-11-15T07:03:32.682Z,15.13
2022-11-15T07:08:56.551Z,14.15
2022-11-15T07:14:18.557Z,13.27
2022-11-15T07:19:40.331Z,14.32
2022-11-15T07:25:03.627Z,13.40
2022-11-15T07:30:26.977Z,15.60
2022-11-15T07:35:50.365Z,15.70
2022-11-15T07:41:13.620Z,18.05
2022-11-15T07:46:35.367Z,18.92
2022-11-15T07:51:57.092Z,19.62
2022-11-15T07:57:20.106Z,19.33
2022-11-15T08:02:42.426Z,16.65
2022-11-15T08:08:05.188Z,17.08
2022-11-15T08:13:29.025Z,14.80
2022-11-15T08:18:51.319Z,14.60
2022-11-15T08:24:12.987Z,13.18
2022-11-15T08:29:36.953Z,13.52
2022-11-15T08:34:59.054Z,13.80
2022-11-15T08:40:21.161Z,11.63
2022-11-15T08:45:44.579Z,12.57
2022-11-15T08:51:06.628Z,10.20
2022-11-15T08:56:28.538Z,9.52
2022-11-15T09:01:51.783Z,10.20
2022-11-15T09:07:15.416Z,8.77
2022-11-15T09:12:37.446Z,8.45
2022-11-15T09:18:01.471Z,6.97
2022-11-15T09:23:23.018Z,6.32
2022-11-15T09:28:44.684Z,6.35
2022-11-15T09:34:07.783Z,5.18
2022-11-15T09:39:29.491Z,5.20
2022-11-15T09:45:09.272Z,4.68
2022-11-15T09:50:38.472Z,3.92
2022-11-15T09:55:52.683Z,4.00
2022-11-15T10:01:00.202Z,2.45
2022-11-15T10:06:08.519Z,2.30
2022-11-15T10:17:04.438Z,2.00
2022-11-15T10:22:23.236Z,2.47
2022-11-15T10:27:27.106Z,1.70
2022-11-15T10:32:31.938Z,1.85
2022-11-15T10:37:37.028Z,2.12
2022-11-15T10:42:40.793Z,1.75
2022-11-15T10:47:44.548Z,1.35
2022-11-15T10:52:49.768Z,1.77
2022-11-15T10:57:56.344Z,1.12
2022-11-15T11:03:04.750Z,1.70
2022-11-15T11:13:28.167Z,1.30
2022-11-15T11:18:37.259Z,1.40
2022-11-15T11:23:50.496Z,1.83
2022-11-15T11:29:03.687Z,1.30
2022-11-15T11:34:17.578Z,1.50
2022-11-15T11:39:33.860Z,1.48
2022-11-15T11:44:51.540Z,1.00
2022-11-15T11:50:01.371Z,1.20
2022-11-15T11:55:16.851Z,1.25
2022-11-15T12:00:22.905Z,0.80
2022-11-15T12:05:33.276Z,1.30
2022-11-15T12:10:41.359Z,1.33
2022-11-15T12:15:49.433Z,0.98
2022-11-15T12:20:58.500Z,1.58
2022-11-15T12:26:10.416Z,1.02
2022-11-15T12:31:18.977Z,1.40
2022-11-15T12:36:38.521Z,1.42
2022-11-15T12:41:45.934Z,0.80
2022-11-15T12:47:24.484Z,0.83
2022-11-15T12:52:28.199Z,1.02
2022-11-15T12:57:45.588Z,1.25
2022-11-15T13:02:49.580Z,0.80
2022-11-15T13:08:00.448Z,1.23
2022-11-15T13:13:08.571Z,1.17
2022-11-15T13:18:31.092Z,1.48
2022-11-15T13:23:34.986Z,1.00
2022-11-15T13:28:45.124Z,0.90
2022-11-15T13:33:48.955Z,1.27
2022-11-15T13:39:00.866Z,1.25
2022-11-15T13:44:20.543Z,0.98
2022-11-15T13:49:31.709Z,1.10
2022-11-15T13:54:38.872Z,1.17
2022-11-15T13:59:50.955Z,1.33
2022-11-15T14:04:57.569Z,1.30
2022-11-15T14:10:19.760Z,1.10
2022-11-15T14:15:31.959Z,1.20
2022-11-15T14:20:39.093Z,1.35
2022-11-15T14:25:54.856Z,3.45
2022-11-15T14:31:01.501Z,1.35
2022-11-15T14:36:07.730Z,1.55
2022-11-15T14:41:20.652Z,0.98
2022-11-15T14:46:25.779Z,2.08
2022-11-15T14:51:29.535Z,1.48
2022-11-15T14:56:33.276Z,1.52
2022-11-15T15:01:38.290Z,1.48
2022-11-15T15:06:42.171Z,1.85
2022-11-15T15:11:46.765Z,1.30
2022-11-15T15:16:51.848Z,1.52
2022-11-15T15:21:55.493Z,1.23
2022-11-15T15:26:59.272Z,1.55
2022-11-15T15:32:04.945Z,1.45
2022-11-15T15:37:10.407Z,1.30
2022-11-15T15:42:14.158Z,1.70
2022-11-15T15:47:21.828Z,2.30
2022-11-15T15:52:26.077Z,2.67
2022-11-15T15:57:29.855Z,2.30
2022-11-15T16:02:39.264Z,2.05
2022-11-15T16:07:45.103Z,1.80
2022-11-15T16:12:49.130Z,1.80
2022-11-15T16:17:55.643Z,2.30
2022-11-15T16:23:02.090Z,2.62
2022-11-15T16:28:18.718Z,2.30
2022-11-15T16:33:23.929Z,3.00
2022-11-15T16:38:28.001Z,3.10
2022-11-15T16:43:31.682Z,2.45
2022-11-15T16:48:37.253Z,2.62
2022-11-15T16:53:41.256Z,3.12
2022-11-15T16:58:45.056Z,3.17
2022-11-15T17:03:50.080Z,2.90
2022-11-15T17:08:53.800Z,3.15
2022-11-15T17:13:59.271Z,3.90
2022-11-15T17:19:04.398Z,3.78
2022-11-15T17:24:08.410Z,3.75
2022-11-15T17:29:12.276Z,4.12
2022-11-15T17:34:17.326Z,5.22
2022-11-15T17:39:21.122Z,5.25
2022-11-15T17:44:24.789Z,4.87
2022-11-15T17:49:29.876Z,4.82
2022-11-15T17:54:33.586Z,5.30
2022-11-15T17:59:37.294Z,4.80
2022-11-15T18:04:42.243Z,4.75
2022-11-15T18:09:45.997Z,5.50
2022-11-15T18:14:49.682Z,5.80
2022-11-15T18:19:54.842Z,5.55
2022-11-15T18:24:58.685Z,5.57
2022-11-15T18:30:02.540Z,8.02
2022-11-15T18:35:09.273Z,6.28
2022-11-15T18:40:13.167Z,6.62
2022-11-15T18:45:21.527Z,6.22
2022-11-15T18:50:28.963Z,6.20
2022-11-15T18:55:32.743Z,8.32
2022-11-15T19:00:36.547Z,8.88
2022-11-15T19:05:41.655Z,12.23
2022-11-15T19:10:45.371Z,8.38
2022-11-15T19:15:49.148Z,10.55
2022-11-15T19:20:55.180Z,9.38
2022-11-15T19:26:00.125Z,10.27
2022-11-15T19:31:07.326Z,9.00
2022-11-15T19:36:14.750Z,9.68
2022-11-15T19:41:20.545Z,10.43
2022-11-15T19:46:25.007Z,9.30
2022-11-15T19:51:31.309Z,10.40
2022-11-15T19:56:36.161Z,10.85
2022-11-15T20:01:40.200Z,11.05
2022-11-15T20:06:45.465Z,10.60
2022-11-15T20:11:49.143Z,11.48
2022-11-15T20:16:54.594Z,10.52
2022-11-15T20:21:59.812Z,11.60
2022-11-15T20:27:03.587Z,11.50
2022-11-15T20:32:07.341Z,11.12
2022-11-15T20:37:12.426Z,12.32
2022-11-15T20:42:16.162Z,11.23
2022-11-15T20:47:19.865Z,11.27
2022-11-15T20:52:25.035Z,12.07
2022-11-15T20:57:28.799Z,12.00
2022-11-15T21:02:33.143Z,13.45
2022-11-15T21:07:38.235Z,13.20
2022-11-15T21:12:41.955Z,13.85
2022-11-15T21:17:45.715Z,13.75
2022-11-15T21:22:50.876Z,16.60
2022-11-15T21:27:54.700Z,14.00
2022-11-15T21:32:58.543Z,12.13
2022-11-15T21:38:03.607Z,12.82
2022-11-15T21:43:07.305Z,13.57
2022-11-15T21:48:11.020Z,12.40
2022-11-15T21:53:16.091Z,12.35
2022-11-15T21:58:20.278Z,14.63
2022-11-15T22:03:24.006Z,18.55
2022-11-15T22:08:29.413Z,14.30
2022-11-15T22:13:33.159Z,12.50
2022-11-15T22:18:37.672Z,14.27
2022-11-15T22:23:43.967Z,13.30
2022-11-15T22:28:48.071Z,12.80
2022-11-15T22:33:51.813Z,13.88
2022-11-15T22:38:56.877Z,12.82
2022-11-15T22:44:00.569Z,12.88
2022-11-15T22:49:04.334Z,13.50
2022-11-15T22:54:09.511Z,13.65
2022-11-15T22:59:13.267Z,13.62
2022-11-15T23:04:17.122Z,15.10
2022-11-15T23:09:22.202Z,13.13
2022-11-15T23:14:26.313Z,13.52
2022-11-15T23:19:30.044Z,12.80
2022-11-15T23:24:35.237Z,12.95
2022-11-15T23:29:52.912Z,13.32
2022-11-15T23:34:56.629Z,14.02
2022-11-15T23:40:01.771Z,14.05
2022-11-15T23:45:06.375Z,14.82
2022-11-15T23:50:10.471Z,14.73
2022-11-15T23:55:15.542Z,15.70
